Time;durP1;ratioP1;P1;durP2;ratioP2;P2;SDS_P1;SDS_P2;PMS_P1;PMS_P2;Temp;Humidity;BMP_temperature;BMP_pressure;BME280_temperature;BME280_humidity;BME280_pressure;Samples;Min_cycle;Max_cycle;Signal;HPM_P1;HPM_P2
2024/03/26 17:19:05;;;;;;;;;;;5.50;99.90;;;;;;5073890;28;20273;-90
2024/03/26 17:21:31;;;;;;;;;;;5.50;99.90;;;;;;5073253;28;19999;-89
2024/03/26 17:23:56;;;;;;;;;;;5.60;99.90;;;;;;5073258;28;19912;-89
2024/03/26 17:26:22;;;;;;;;;;;5.60;99.90;;;;;;5073285;28;19909;-89
2024/03/26 17:28:49;;;;;;;;;;;5.70;99.90;;;;;;5070592;28;19909;-90
2024/03/26 17:31:14;;;;;;;;;;;5.80;99.90;;;;;;5071955;28;19908;-89
2024/03/26 17:33:40;;;;;;;;;;;5.90;99.90;;;;;;5071416;28;19912;-88
2024/03/26 17:36:06;;;;;;;;;;;5.90;99.90;;;;;;5071288;28;19916;-89
2024/03/26 17:38:31;;;;;;;;;;;6.00;99.90;;;;;;5071024;28;19959;-90
2024/03/26 17:40:57;;;;;;;;;;;6.10;99.90;;;;;;5052782;28;19916;-90
2024/03/26 17:43:22;;;;;;;;;;;6.20;99.90;;;;;;5052669;28;20270;-90
2024/03/26 17:45:48;;;;;;;;;;;6.20;99.90;;;;;;5050815;28;19916;-90
2024/03/26 17:48:13;;;;;;;;;;;6.30;99.90;;;;;;5051289;28;19916;-90
2024/03/26 17:50:38;;;;;;;;;;;6.30;99.90;;;;;;5053375;28;19915;-90
2024/03/26 17:53:04;;;;;;;;;;;6.40;99.90;;;;;;5053289;28;19913;-91
2024/03/26 17:55:29;;;;;;;;;;;6.40;99.90;;;;;;5084920;28;19909;-90
2024/03/26 17:57:55;;;;;;;;;;;6.40;99.90;;;;;;5051352;28;19917;-89
2024/03/26 18:00:20;;;;;;;;;;;6.50;99.90;;;;;;5072810;28;19909;-89
2024/03/26 18:02:49;;;;;;;;;;;6.50;99.90;;;;;;5071681;28;19920;-89
2024/03/26 18:05:15;;;;;;;;;;;6.50;99.90;;;;;;5073445;28;19909;-90
2024/03/26 18:07:43;;;;;;;;;;;6.50;99.90;;;;;;5073134;28;19916;-90
2024/03/26 18:10:09;;;;;;;;;;;6.50;99.90;;;;;;5072669;28;20276;-89
2024/03/26 18:12:35;;;;;;;;;;;6.60;99.90;;;;;;5072678;28;20003;-90
2024/03/26 18:15:01;;;;;;;;;;;6.60;99.90;;;;;;5073606;28;19931;-91
2024/03/26 18:17:27;;;;;;;;;;;6.60;99.90;;;;;;5078428;28;19987;-90
2024/03/26 18:19:52;;;;;;;;;;;6.60;99.90;;;;;;5072640;28;19912;-90
2024/03/26 18:22:18;;;;;;;;;;;6.60;99.90;;;;;;5072089;28;19909;-90
2024/03/26 18:24:46;;;;;;;;;;;6.60;99.90;;;;;;5069841;28;19972;-89
2024/03/26 18:27:12;;;;;;;;;;;6.60;99.90;;;;;;5071206;28;19909;-90
2024/03/26 18:29:37;;;;;;;;;;;6.70;99.90;;;;;;5061576;28;19930;-90
2024/03/26 18:32:04;;;;;;;;;;;6.70;99.90;;;;;;5058639;28;19916;-90
2024/03/26 18:34:29;;;;;;;;;;;6.70;99.90;;;;;;5058499;28;19909;-90
2024/03/26 18:36:55;;;;;;;;;;;6.70;99.90;;;;;;5059777;28;19916;-90
2024/03/26 18:39:21;;;;;;;;;;;6.70;99.90;;;;;;5058179;28;19912;-90
2024/03/26 18:41:47;;;;;;;;;;;6.70;99.90;;;;;;5057435;28;19990;-91
2024/03/26 18:44:12;;;;;;;;;;;6.70;99.90;;;;;;5059822;28;19908;-90
2024/03/26 18:46:38;;;;;;;;;;;6.70;99.90;;;;;;5058811;28;19909;-90
2024/03/26 18:49:04;;;;;;;;;;;6.70;99.90;;;;;;5058107;28;19909;-90
2024/03/26 18:51:30;;;;;;;;;;;6.60;99.90;;;;;;5058890;28;19947;-91
2024/03/26 18:53:56;;;;;;;;;;;6.60;99.90;;;;;;5056963;28;20373;-90
2024/03/26 18:56:21;;;;;;;;;;;6.60;99.90;;;;;;5057941;28;20015;-90
2024/03/26 18:58:47;;;;;;;;;;;6.60;99.90;;;;;;5056650;28;20250;-91
2024/03/26 19:01:15;;;;;;;;;;;6.60;99.90;;;;;;5091188;28;19913;-90
2024/03/26 19:03:41;;;;;;;;;;;6.60;99.90;;;;;;5057910;28;19948;-90
2024/03/26 19:06:07;;;;;;;;;;;6.50;99.90;;;;;;5055881;28;19913;-90
2024/03/26 19:08:32;;;;;;;;;;;6.50;99.90;;;;;;5058227;28;20363;-90
2024/03/26 19:10:59;;;;;;;;;;;6.50;99.90;;;;;;5057584;28;19915;-91
2024/03/26 19:13:24;;;;;;;;;;;6.50;99.90;;;;;;5055609;28;20011;-90
2024/03/26 19:15:50;;;;;;;;;;;6.40;99.90;;;;;;5054366;28;19988;-91
2024/03/26 19:18:15;;;;;;;;;;;6.50;99.90;;;;;;5055092;28;19924;-91
2024/03/26 19:20:48;;;;;;;;;;;6.50;99.90;;;;;;5054394;28;19913;-90
2024/03/26 19:23:14;;;;;;;;;;;6.40;99.90;;;;;;5054263;28;20280;-96
2024/03/26 19:25:40;;;;;;;;;;;6.40;99.90;;;;;;5058283;28;19908;-96
2024/03/26 19:28:06;;;;;;;;;;;6.50;99.90;;;;;;5057666;28;20267;-94
2024/03/26 19:30:34;;;;;;;;;;;6.50;99.90;;;;;;5056602;28;19956;-94
2024/03/26 19:33:00;;;;;;;;;;;6.50;99.90;;;;;;5055929;28;19908;-94
2024/03/26 19:35:25;;;;;;;;;;;6.40;99.90;;;;;;5055436;28;20345;-94
2024/03/26 19:37:52;;;;;;;;;;;6.40;99.90;;;;;;5055942;28;19913;-94
2024/03/26 19:40:17;;;;;;;;;;;6.50;99.90;;;;;;5055204;28;19965;-95
2024/03/26 19:42:43;;;;;;;;;;;6.40;99.90;;;;;;5055523;28;19996;-95
2024/03/26 19:45:09;;;;;;;;;;;6.50;99.90;;;;;;5055783;28;19920;-95
2024/03/26 19:47:36;;;;;;;;;;;6.50;99.90;;;;;;5073047;28;19989;-95
2024/03/26 19:50:02;;;;;;;;;;;6.50;99.90;;;;;;5055979;28;20354;-94
2024/03/26 19:52:27;;;;;;;;;;;6.50;99.90;;;;;;5055819;28;20001;-94
2024/03/26 19:54:53;;;;;;;;;;;6.50;99.90;;;;;;5054689;28;20341;-88
2024/03/26 19:57:19;;;;;;;;;;;6.50;99.90;;;;;;5056089;28;19912;-89
2024/03/26 19:59:47;;;;;;;;;;;6.50;99.90;;;;;;5062456;28;19913;-89
2024/03/26 20:02:13;;;;;;;;;;;6.50;99.90;;;;;;5072389;28;19896;-87
2024/03/26 20:04:38;;;;;;;;;;;6.50;99.90;;;;;;5072213;28;19962;-88
2024/03/26 20:07:05;;;;;;;;;;;6.50;99.90;;;;;;5073815;28;20353;-95
2024/03/26 20:09:34;;;;;;;;;;;6.50;99.90;;;;;;5054850;28;19908;-95
2024/03/26 20:12:01;;;;;;;;;;;6.50;99.90;;;;;;5054550;28;19915;-88
2024/03/26 20:14:27;;;;;;;;;;;6.50;99.90;;;;;;5049887;28;19986;-95
2024/03/26 20:16:52;;;;;;;;;;;6.50;99.90;;;;;;5055451;28;20358;-95
2024/03/26 20:19:18;;;;;;;;;;;6.50;99.90;;;;;;5055195;28;19909;-95
2024/03/26 20:21:46;;;;;;;;;;;6.50;99.90;;;;;;5053301;28;19920;-89
2024/03/26 20:24:12;;;;;;;;;;;6.50;99.90;;;;;;5068810;28;20366;-88
2024/03/26 20:26:37;;;;;;;;;;;6.50;99.90;;;;;;5039568;28;19912;-87
2024/03/26 20:29:03;;;;;;;;;;;6.50;99.90;;;;;;5041834;28;19910;-95
2024/03/26 20:31:28;;;;;;;;;;;6.50;99.90;;;;;;5050167;28;20353;-95
2024/03/26 20:33:53;;;;;;;;;;;6.50;99.90;;;;;;5048587;28;19963;-95
2024/03/26 20:36:20;;;;;;;;;;;6.50;99.90;;;;;;5046625;28;19940;-94
2024/03/26 20:38:46;;;;;;;;;;;6.40;99.90;;;;;;5054722;28;20277;-88
